EYKA/KUN METAR and TAF weather

Enter ICAO airport designator
Station Type Date Time Source
EYKA METAR 2019/08/25 02:50 UTC NOAA

EYKA 250250Z 08001KT CAVOK 13/13 Q1027


Station Type Date Time Source
EYKA Decoded METAR 2019/08/25 02:50 UTC NOAA

Station name not available
Aug 24, 2019 - 10:50 PM EDT / 2019.08.25 0250 UTC
Wind: from the E (080 degrees) at 1 MPH (1 KT):0
Visibility: greater than 7 mile(s):0
Temperature: 55 F (13 C)
Dew Point: 55 F (13 C)
Relative Humidity: 100%
Pressure (altimeter): 30.33 in. Hg (1027 hPa)
ob: EYKA 250250Z 08001KT CAVOK 13/13 Q1027
cycle: 3

Station Type Date Time Source
EYKA TAF 2019/08/24 18:06 UTC NOAA

TAF TAF EYKA 241701Z 2418/2518 VRB04KT 8000 NSC
TEMPO 2509/2516 SCT035

Example: see airport list